x

Albatross Bank - 104nm South Of Kodiak, Ak (46078) Wave Buoy

2:50am - Mon 22nd Sep 2014 All times are AKDT. -8 hours from GMT.

  • Sig Wave height 5.6ft
  • Swell Direction
  • Peak Period 6s
  • Average Period 6s
  • Wind
    20mph, 25mph gusts
  • Sea Temp 56°f
  • Air Temp 51°f
  • Sea Pressure 998.6mb
  • Albatross Bank - 104nm South Of Kodiak, Ak
  • Albatross Bank - 104nm South Of Kodiak, Ak

More Historic Weather Station data

Upgrade to MSW Pro to gain access to the past 30 days of data for over 8000 Wavebouys and Weather Stations around the globe.

Join Pro

Comparision Forecast

View Surf forecast
   
Mon 09/22 2:50am 5.5ft 6s 6s 20 25 mph 998.6mb 56f 51f
1:50am 5.5ft 8s 6s 20 25 mph 998.3mb 56f 51f
12:50am 5ft 8s 6s 20 22 mph 998mb 56f 52f
Sun 09/21 11:50pm 4.5ft 15s 6s 18 22 mph 997.9mb 56f 52f
10:50pm 4.5ft 8s 6s 18 22 mph 997.9mb 56f 53f
9:50pm 4ft 9s 7s 16 20 mph 997.8mb 56f 53f
8:50pm 4ft 15s 7s 13 16 mph 998mb 56f 53f
7:50pm 4.5ft 9s 7s 9 13 mph 998mb 56f 53f
6:50pm 4.5ft 9s 8s 13 16 mph 998.2mb 56f 53f
5:50pm 4ft 10s 8s 9 11 mph 998.6mb 56f 53f
4:50pm 3.5ft 11s 7s 9 11 mph 998.7mb 56f 53f
3:50pm 3.5ft 13s 8s 7 9 mph 999mb 56f 53f
2:50pm 3.5ft 16s 8s 9 11 mph 999.2mb 56f 53f
1:50pm 3.5ft 9s 8s 7 9 mph 999.9mb 56f 54f
12:50pm 4ft 15s 8s 7 9 mph 1000.1mb 56f 54f
11:50am 3.5ft 8s 8s 7 9 mph 1000.4mb 56f 53f
10:50am 4ft 8s 8s 4 7 mph 1000.8mb 56f 53f
9:50am 4ft 10s 8s 7
mph
1001mb 56f 53f
8:50am 4.5ft 8s 8s 4
mph
1001.2mb 56f 53f
7:50am 4.5ft 8s 8s 4 7 mph 1001.4mb 56f 53f
6:50am 4.5ft 8s 7s 4 7 mph 1001.6mb 56f 53f
5:50am 4.5ft 8s 7s 2 4 mph 1002mb 56f 53f
4:50am 4.5ft 8s 8s  -  2 mph 1002.1mb 56f 53f
3:50am 4.5ft 9s 7s  -  2 mph 1002.3mb 56f 53f
2:50am 4.5ft 9s 7s  -  2 mph 1002.6mb 56f 53f
1:50am 4.5ft 9s 7s 2 4 mph 1002.7mb 56f 53f
12:50am 4.5ft 8s 7s  -  4 mph 1002.8mb 56f 53f
Sat 09/20 11:50pm 4.5ft 9s 7s 2 4 mph 1003mb 56f 54f
10:50pm 4.5ft 9s 7s  -  2 mph 1003mb 56f 54f
9:50pm 4.5ft 10s 7s  -  2 mph 1002.9mb 56f 53f
8:50pm 4.5ft 10s 7s 2 4 mph 1002.5mb 56f 53f
7:50pm 4.5ft 9s 7s 4 7 mph 1002.4mb 56f 53f
6:50pm 5ft 10s 7s 2 4 mph 1002.3mb 56f 54f
5:50pm 4.5ft 10s 7s 4 7 mph 1002.1mb 57f 54f
4:50pm 5ft 10s 7s 2 7 mph 1002.1mb 57f 54f
3:50pm 5ft 8s 7s 4
mph
1001.8mb 57f 55f
2:50pm 4.5ft 10s 7s 4 7 mph 1001.7mb 56f 54f
1:50pm 4.5ft 9s 7s 9
mph
1001.5mb 56f 54f
12:50pm 4.5ft 8s 7s 7 9 mph 1001.1mb 56f 54f
11:50am 4.5ft 9s 7s 7
mph
1001.1mb 56f 54f
10:50am 4.5ft 9s 7s 9
mph
1000.7mb 56f 54f
9:50am 4.5ft 8s 7s 9 11 mph 1000.5mb 56f 54f
8:50am 4.5ft 9s 7s 9 11 mph 1000.4mb 56f 54f
7:50am 5ft 9s 7s 7 9 mph 1000.1mb 56f 54f
6:50am 5ft 10s 7s 9
mph
999.9mb 56f 54f
5:50am 5ft 10s 6s 9 11 mph 999.8mb 56f 54f
4:50am 5ft 10s 6s 9 11 mph 999.6mb 56f 55f
3:50am 5ft 7s 6s 4 7 mph 999.8mb 56f 54f
2:50am 5.5ft 9s 7s 11 13 mph 999.7mb 56f 54f
1:50am 5ft 8s 7s 9 11 mph 999.6mb 56f 54f
12:50am 5ft 9s 7s 11 13 mph 999.7mb 56f 54f
Fri 09/19 11:50pm 5.5ft 16s 7s 11 13 mph 999.7mb 56f 54f
10:50pm 6ft 9s 7s 11 13 mph 999.4mb 56f 54f
9:50pm 5.5ft 10s 7s 13 16 mph 999mb 56f 54f
8:50pm 6.5ft 9s 7s 13 16 mph 998.6mb 56f 53f
7:50pm 6.5ft 9s 7s 13 18 mph 998.1mb 56f 54f
6:50pm 6.5ft 9s 7s 13 16 mph 997.7mb 56f 54f
5:50pm 7ft 8s 7s 13 16 mph 997.3mb 56f 54f
4:50pm 7ft 10s 7s 13 18 mph 997.1mb 56f 54f
3:50pm 8ft 10s 7s 13 18 mph 996.9mb 56f 54f
2:50pm 8ft 10s 7s 16 20 mph 996.6mb 56f 54f
12:50pm 8ft 10s 7s 16 18 mph 995.8mb 56f 54f
11:50am 7.5ft 8s 7s 16 18 mph 995.4mb 56f 54f
10:50am 7.5ft 10s 7s 16 20 mph 994.8mb 56f 54f
9:50am 8.5ft 9s 7s 18 20 mph 994.1mb 56f 54f
8:50am 9ft 9s 7s 20 25 mph 993.5mb 56f 54f
7:50am 9ft 9s 7s 20 27 mph 992.8mb 56f 54f
6:50am 10ft 11s 7s 22 25 mph 992.2mb 56f 53f
5:50am 10ft 9s 7s 20 25 mph 991.8mb 56f 53f
4:50am 10.5ft 10s 7s 20 25 mph 991.3mb 56f 54f
3:50am 11ft 9s 8s 20 27 mph 990.9mb 56f 54f
2:50am 10ft 11s 7s 20 25 mph 990.4mb 56f 54f
1:50am 10ft 10s 7s 22 27 mph 989.8mb 56f 54f
12:50am 9ft 9s 7s 22 27 mph 989.3mb 56f 54f
Thu 09/18 11:50pm 9.5ft 8s 7s 25 29 mph 988.4mb 56f 54f
10:50pm 9.5ft 11s 7s 25 29 mph 988mb 56f 54f
9:50pm 9ft 10s 7s 25 31 mph 987.3mb 56f 54f
8:50pm 8.5ft 10s 7s 27 31 mph 986.6mb 56f 54f
7:50pm 8ft 8s 6s 27 31 mph 986.1mb 56f 54f
6:50pm 7ft 7s 6s 25 29 mph 985.7mb 56f 55f
5:50pm 6.5ft 9s 6s 22 27 mph 985.2mb 56f 54f
4:50pm 6ft 8s 6s 22 27 mph 985mb 56f 54f
3:50pm 6ft 8s 6s 22 29 mph 984.8mb 56f 54f
2:50pm 6ft 17s 6s 22 27 mph 984.5mb 56f 54f
1:50pm 6ft 5s 6s 22 27 mph 984.3mb 56f 54f
12:50pm 5.5ft 8s 6s 22 27 mph 983.9mb 56f 54f